createdAt,value
2019-06-01T00:01:46.856Z,3.30
2019-06-01T00:04:17.473Z,5.20
2019-06-01T00:06:47.164Z,5.10
2019-06-01T00:09:17.631Z,4.87
2019-06-01T00:11:47.544Z,4.40
2019-06-01T00:14:17.627Z,3.57
2019-06-01T00:16:48.000Z,4.83
2019-06-01T00:19:17.690Z,4.00
2019-06-01T00:21:47.497Z,6.37
2019-06-01T00:24:19.802Z,5.23
2019-06-01T00:26:49.979Z,5.73
2019-06-01T00:29:20.020Z,4.27
2019-06-01T00:31:52.273Z,4.83
2019-06-01T00:34:22.382Z,7.67
2019-06-01T00:36:52.074Z,5.03
2019-06-01T00:39:21.814Z,4.20
2019-06-01T00:41:52.543Z,5.80
2019-06-01T00:44:22.270Z,4.13
2019-06-01T00:46:52.783Z,2.87
2019-06-01T00:49:23.877Z,4.00
2019-06-01T00:51:53.776Z,4.03
2019-06-01T00:54:23.451Z,3.23
2019-06-01T00:56:53.944Z,4.40
2019-06-01T00:59:23.493Z,3.90
2019-06-01T01:01:54.686Z,4.03
2019-06-01T01:04:24.683Z,4.10
2019-06-01T01:06:56.293Z,4.30
2019-06-01T01:09:26.540Z,3.53
2019-06-01T01:11:58.745Z,4.17
2019-06-01T01:14:28.655Z,7.23
2019-06-01T01:16:58.700Z,2.40
2019-06-01T01:19:28.507Z,3.37
2019-06-01T01:21:59.626Z,4.83
2019-06-01T01:24:30.126Z,6.93
2019-06-01T01:27:00.443Z,3.07
2019-06-01T01:29:30.201Z,7.33
2019-06-01T01:31:59.692Z,4.07
2019-06-01T01:34:29.704Z,4.43
2019-06-01T01:36:59.506Z,8.67
2019-06-01T01:39:29.649Z,9.37
2019-06-01T01:41:59.654Z,7.13
2019-06-01T01:44:29.485Z,7.17
2019-06-01T01:46:59.141Z,6.67
2019-06-01T01:49:29.205Z,9.30
2019-06-01T01:52:01.638Z,8.03
2019-06-01T01:54:33.363Z,8.30
2019-06-01T01:57:02.921Z,7.30
2019-06-01T01:59:32.697Z,7.23
2019-06-01T02:02:03.229Z,10.50
2019-06-01T02:04:33.112Z,9.53
2019-06-01T02:07:02.938Z,8.90
2019-06-01T02:09:32.738Z,9.90
2019-06-01T02:12:02.917Z,8.60
2019-06-01T02:14:33.737Z,8.50
2019-06-01T02:17:03.799Z,10.43
2019-06-01T02:19:36.559Z,8.77
2019-06-01T02:22:07.465Z,9.03
2019-06-01T02:24:37.562Z,11.40
2019-06-01T02:27:07.429Z,7.90
2019-06-01T02:29:37.060Z,11.53
2019-06-01T02:32:07.213Z,9.97
2019-06-01T02:34:37.142Z,13.73
2019-06-01T02:37:08.292Z,10.67
2019-06-01T02:39:37.866Z,10.23
2019-06-01T02:42:09.493Z,9.40
2019-06-01T02:44:39.065Z,9.80
2019-06-01T02:47:08.796Z,9.63
2019-06-01T02:49:39.157Z,7.70
2019-06-01T02:52:08.780Z,10.97
2019-06-01T02:54:38.248Z,8.60
2019-06-01T02:57:08.495Z,11.03
2019-06-01T02:59:38.468Z,11.53
2019-06-01T03:02:13.297Z,13.13
2019-06-01T03:04:41.186Z,10.87
2019-06-01T03:07:12.735Z,12.50
2019-06-01T03:09:42.494Z,12.87
2019-06-01T03:12:15.811Z,11.50
2019-06-01T03:14:47.520Z,13.33
2019-06-01T03:17:20.227Z,12.73
2019-06-01T03:19:52.584Z,13.50
2019-06-01T03:22:23.930Z,12.17
2019-06-01T03:24:56.621Z,16.07
2019-06-01T03:27:29.560Z,12.37
2019-06-01T03:30:05.311Z,15.03
2019-06-01T03:32:38.100Z,13.33
2019-06-01T03:35:09.657Z,12.97
2019-06-01T03:37:39.970Z,13.73
2019-06-01T03:40:19.656Z,12.73
2019-06-01T03:42:42.461Z,15.50
2019-06-01T03:45:12.968Z,15.17
2019-06-01T03:47:42.761Z,13.27
2019-06-01T03:50:13.250Z,13.17
2019-06-01T03:52:42.826Z,13.17
2019-06-01T03:55:12.395Z,11.90
2019-06-01T03:57:42.321Z,13.77
2019-06-01T04:00:12.510Z,15.00
2019-06-01T04:02:42.088Z,17.03
2019-06-01T04:05:14.259Z,14.33
2019-06-01T04:07:44.113Z,13.73
2019-06-01T04:10:13.740Z,18.20
2019-06-01T04:12:44.610Z,16.17
2019-06-01T04:15:16.827Z,15.23
2019-06-01T04:17:46.507Z,16.20
2019-06-01T04:20:17.234Z,15.57
2019-06-01T04:22:46.890Z,15.37
2019-06-01T04:25:16.585Z,16.77
2019-06-01T04:27:46.773Z,16.27
2019-06-01T04:30:16.692Z,14.60
2019-06-01T04:32:49.763Z,12.13
2019-06-01T04:35:17.911Z,15.13
2019-06-01T04:37:47.898Z,13.77
2019-06-01T04:40:17.551Z,13.30
2019-06-01T04:42:47.735Z,12.63
2019-06-01T04:45:20.599Z,11.77
2019-06-01T04:47:50.332Z,14.73
2019-06-01T04:50:22.005Z,15.07
2019-06-01T04:52:51.904Z,15.33
2019-06-01T04:55:21.416Z,17.53
2019-06-01T04:57:51.279Z,12.93
2019-06-01T05:00:27.392Z,13.00
2019-06-01T05:03:04.862Z,13.60
2019-06-01T05:05:26.090Z,15.83
2019-06-01T05:07:55.632Z,12.67
2019-06-01T05:10:25.228Z,15.13
2019-06-01T05:12:55.389Z,13.67
2019-06-01T05:15:25.779Z,17.57
2019-06-01T05:17:55.352Z,12.77
2019-06-01T05:20:25.264Z,16.97
2019-06-01T05:22:55.703Z,14.97
2019-06-01T05:25:25.304Z,13.67
2019-06-01T05:27:55.218Z,14.20
2019-06-01T05:30:24.847Z,21.13
2019-06-01T05:32:56.070Z,15.20
2019-06-01T05:35:25.842Z,16.17
2019-06-01T05:37:55.725Z,15.43
2019-06-01T05:40:27.088Z,14.40
2019-06-01T05:42:57.175Z,16.33
2019-06-01T05:45:28.555Z,17.90
2019-06-01T05:47:58.465Z,15.57
2019-06-01T05:50:28.363Z,17.67
2019-06-01T05:52:58.413Z,18.27
2019-06-01T05:55:28.403Z,16.23
2019-06-01T05:58:00.723Z,17.20
2019-06-01T06:00:44.113Z,17.93
2019-06-01T06:03:16.227Z,18.87
2019-06-01T06:05:46.072Z,22.50
2019-06-01T06:08:16.043Z,18.90
2019-06-01T06:10:46.455Z,23.10
2019-06-01T06:13:17.415Z,19.47
2019-06-01T06:15:47.781Z,17.90
2019-06-01T06:18:17.830Z,19.27
2019-06-01T06:20:47.511Z,21.13
2019-06-01T06:23:18.400Z,20.97
2019-06-01T06:25:48.008Z,17.37
2019-06-01T06:28:18.823Z,19.53
2019-06-01T06:30:48.325Z,18.33
2019-06-01T06:33:21.486Z,21.00
2019-06-01T06:35:54.644Z,23.23
2019-06-01T06:38:24.581Z,19.27
2019-06-01T06:40:54.424Z,23.77
2019-06-01T06:43:32.657Z,18.80
2019-06-01T06:45:56.827Z,23.50
2019-06-01T06:48:29.583Z,24.03
2019-06-01T06:50:59.485Z,22.07
2019-06-01T06:53:35.647Z,24.90
2019-06-01T06:56:06.057Z,26.23
2019-06-01T06:58:36.672Z,23.50
2019-06-01T07:01:07.188Z,20.40
2019-06-01T07:03:37.353Z,24.90
2019-06-01T07:06:07.078Z,26.40
2019-06-01T07:08:38.250Z,25.63
2019-06-01T07:11:11.763Z,29.50
2019-06-01T07:13:40.396Z,32.30
2019-06-01T07:16:10.734Z,28.37
2019-06-01T07:18:43.256Z,26.40
2019-06-01T07:21:13.280Z,32.57
2019-06-01T07:23:43.126Z,24.70
2019-06-01T07:26:12.951Z,30.67
2019-06-01T07:28:52.495Z,27.97
2019-06-01T07:31:22.393Z,28.07
2019-06-01T07:33:51.894Z,28.60
2019-06-01T07:36:22.231Z,28.83
2019-06-01T07:38:52.407Z,27.50
2019-06-01T07:41:22.756Z,26.27
2019-06-01T07:43:52.408Z,31.03
2019-06-01T07:46:22.812Z,29.40
2019-06-01T07:48:52.547Z,26.43
2019-06-01T07:51:23.219Z,29.70
2019-06-01T07:53:53.016Z,28.03
2019-06-01T07:56:22.704Z,28.33
2019-06-01T07:58:52.648Z,29.00
2019-06-01T08:01:26.830Z,33.37
2019-06-01T08:03:56.358Z,30.77
2019-06-01T08:06:27.981Z,31.40
2019-06-01T08:08:58.056Z,35.70
2019-06-01T08:11:32.900Z,34.13
2019-06-01T08:14:01.455Z,29.53
2019-06-01T08:16:33.098Z,29.90
2019-06-01T08:19:02.651Z,26.90
2019-06-01T08:21:32.636Z,35.63
2019-06-01T08:24:03.586Z,29.03
2019-06-01T08:26:33.102Z,27.73
2019-06-01T08:29:03.076Z,29.23
2019-06-01T08:31:34.144Z,31.20
2019-06-01T08:34:04.393Z,38.23
2019-06-01T08:36:37.609Z,34.60
2019-06-01T08:39:08.678Z,36.03
2019-06-01T08:41:41.564Z,27.87
2019-06-01T08:44:11.731Z,34.13
2019-06-01T08:46:41.467Z,31.57
2019-06-01T08:49:11.564Z,34.40
2019-06-01T08:51:41.221Z,28.90
2019-06-01T08:54:13.132Z,31.93
2019-06-01T08:56:43.176Z,29.87
2019-06-01T08:59:14.699Z,31.37
2019-06-01T09:01:44.903Z,30.67
2019-06-01T09:04:14.707Z,29.47
2019-06-01T09:06:44.789Z,30.20
2019-06-01T09:09:17.106Z,30.73
2019-06-01T09:11:46.851Z,29.57
2019-06-01T09:14:17.125Z,30.67
2019-06-01T09:16:47.446Z,28.60
2019-06-01T09:19:17.652Z,32.37
2019-06-01T09:21:48.182Z,32.80
2019-06-01T09:24:17.870Z,31.73
2019-06-01T09:26:47.489Z,33.50
2019-06-01T09:29:17.691Z,32.60
2019-06-01T09:31:47.332Z,28.20
2019-06-01T09:34:18.561Z,28.20
2019-06-01T09:36:48.220Z,31.10
2019-06-01T09:39:17.803Z,28.90
2019-06-01T09:41:48.831Z,28.93
2019-06-01T09:44:18.802Z,25.40
2019-06-01T09:46:48.561Z,32.23
2019-06-01T09:49:20.658Z,35.43
2019-06-01T09:51:50.810Z,31.20
2019-06-01T09:54:20.387Z,32.20
2019-06-01T09:56:50.473Z,35.20
2019-06-01T09:59:21.302Z,31.13
2019-06-01T10:01:50.999Z,33.10
2019-06-01T10:04:20.734Z,23.90
2019-06-01T10:06:50.437Z,36.43
2019-06-01T10:09:20.315Z,31.90
2019-06-01T10:11:49.843Z,29.17
2019-06-01T10:14:20.206Z,25.43
2019-06-01T10:16:52.654Z,27.67
2019-06-01T10:19:22.113Z,25.50
2019-06-01T10:21:52.838Z,25.63
2019-06-01T10:24:24.329Z,19.87
2019-06-01T10:26:54.647Z,28.57
2019-06-01T10:29:25.527Z,25.17
2019-06-01T10:31:55.626Z,24.07
2019-06-01T10:34:26.170Z,25.50
2019-06-01T10:36:55.874Z,25.10
2019-06-01T10:39:25.928Z,21.17
2019-06-01T10:41:56.712Z,19.53
2019-06-01T10:44:27.734Z,21.83
2019-06-01T10:46:57.686Z,22.80
2019-06-01T10:49:30.024Z,22.37
2019-06-01T10:51:59.610Z,25.53
2019-06-01T10:54:30.155Z,20.70
2019-06-01T10:57:00.666Z,20.77
2019-06-01T10:59:34.256Z,24.30
2019-06-01T11:02:04.405Z,22.93
2019-06-01T11:04:37.009Z,25.70
2019-06-01T11:07:07.271Z,24.63
2019-06-01T11:09:37.175Z,23.27
2019-06-01T11:12:06.969Z,24.23
2019-06-01T11:14:39.081Z,29.27
2019-06-01T11:17:08.983Z,63.50
2019-06-01T11:19:42.110Z,24.50
2019-06-01T11:22:13.639Z,25.97
2019-06-01T11:24:45.734Z,23.20
2019-06-01T11:27:17.546Z,25.00
2019-06-01T11:29:51.719Z,22.60
2019-06-01T11:32:23.442Z,18.40
2019-06-01T11:34:55.528Z,22.63
2019-06-01T11:37:28.977Z,20.10
2019-06-01T11:40:09.987Z,22.47
2019-06-01T11:42:45.117Z,21.40
2019-06-01T11:45:16.853Z,20.27
2019-06-01T11:47:49.347Z,24.00
2019-06-01T11:50:20.061Z,19.67
2019-06-01T11:52:49.587Z,22.37
2019-06-01T11:55:20.522Z,26.60
2019-06-01T11:57:51.547Z,23.27
2019-06-01T12:00:21.514Z,20.27
2019-06-01T12:02:53.123Z,15.07
2019-06-01T12:05:23.058Z,17.17
2019-06-01T12:07:53.052Z,20.40
2019-06-01T12:10:25.714Z,14.97
2019-06-01T12:12:55.355Z,12.73
2019-06-01T12:15:36.346Z,15.50
2019-06-01T12:18:11.180Z,13.20
2019-06-01T12:20:47.387Z,19.13
2019-06-01T12:23:18.731Z,15.13
2019-06-01T12:25:54.401Z,9.67
2019-06-01T12:28:25.746Z,11.27
2019-06-01T12:30:56.904Z,9.97
2019-06-01T12:33:28.499Z,8.87
2019-06-01T12:36:06.124Z,5.73
2019-06-01T12:38:57.016Z,7.60
2019-06-01T12:41:32.975Z,5.33
2019-06-01T12:44:18.273Z,5.27
2019-06-01T12:46:56.560Z,6.43
2019-06-01T12:49:36.112Z,7.57
2019-06-01T12:52:07.303Z,6.83
2019-06-01T12:54:37.656Z,5.50
2019-06-01T12:57:08.106Z,6.30
2019-06-01T12:59:37.958Z,11.20
2019-06-01T13:02:07.757Z,6.77
2019-06-01T13:04:40.534Z,5.60
2019-06-01T13:07:12.798Z,5.23
2019-06-01T13:09:43.987Z,7.00
2019-06-01T13:12:13.909Z,6.60
2019-06-01T13:14:43.507Z,7.73
2019-06-01T13:17:13.867Z,7.80
2019-06-01T13:19:43.417Z,4.63
2019-06-01T13:22:13.892Z,7.10
2019-06-01T13:24:45.777Z,9.20
2019-06-01T13:27:16.189Z,6.70
2019-06-01T13:29:46.223Z,7.20
2019-06-01T13:32:15.776Z,8.47
2019-06-01T13:34:47.174Z,10.37
2019-06-01T13:37:17.507Z,10.00
2019-06-01T13:39:54.211Z,10.77
2019-06-01T13:42:19.693Z,13.57
2019-06-01T13:44:51.501Z,11.10
2019-06-01T13:47:22.481Z,13.50
2019-06-01T13:49:52.409Z,13.43
2019-06-01T13:52:22.304Z,11.87
2019-06-01T13:54:52.965Z,13.47
2019-06-01T13:57:23.816Z,13.40
2019-06-01T13:59:55.040Z,12.33
2019-06-01T14:02:27.068Z,17.10
2019-06-01T14:05:00.510Z,19.03
2019-06-01T14:07:30.726Z,16.27
2019-06-01T14:10:00.699Z,15.40
2019-06-01T14:12:30.800Z,23.63
2019-06-01T14:15:00.482Z,20.87
2019-06-01T14:17:40.851Z,19.53
2019-06-01T14:20:10.728Z,19.87
2019-06-01T14:22:41.732Z,23.13
2019-06-01T14:25:14.932Z,27.17
2019-06-01T14:27:44.265Z,26.47
2019-06-01T14:30:14.945Z,28.17
2019-06-01T14:32:46.124Z,24.63
2019-06-01T14:35:16.303Z,24.63
2019-06-01T14:37:46.700Z,27.90
2019-06-01T14:40:17.572Z,23.20
2019-06-01T14:42:49.378Z,26.33
2019-06-01T14:45:19.382Z,19.67
2019-06-01T14:47:49.456Z,18.70
2019-06-01T14:50:20.182Z,18.93
2019-06-01T14:52:49.915Z,20.57
2019-06-01T14:55:20.340Z,26.97
2019-06-01T14:57:52.423Z,23.63
2019-06-01T15:00:23.345Z,17.70
2019-06-01T15:02:54.454Z,22.97
2019-06-01T15:05:25.075Z,19.50
2019-06-01T15:07:56.795Z,24.03
2019-06-01T15:10:26.901Z,18.57
2019-06-01T15:13:01.263Z,20.23
2019-06-01T15:15:29.004Z,19.00
2019-06-01T15:18:05.375Z,25.67
2019-06-01T15:20:35.214Z,24.47
2019-06-01T15:23:05.255Z,14.13
2019-06-01T15:25:35.322Z,21.57
2019-06-01T15:28:05.652Z,16.37
2019-06-01T15:30:38.734Z,17.80
2019-06-01T15:33:13.841Z,19.50
2019-06-01T15:35:46.002Z,20.03
2019-06-01T15:38:15.633Z,14.60
2019-06-01T15:40:47.597Z,18.20
2019-06-01T15:43:17.517Z,17.50
2019-06-01T15:45:48.220Z,16.30
2019-06-01T15:48:19.420Z,23.40
2019-06-01T15:50:49.377Z,20.30
2019-06-01T15:53:22.140Z,15.47
2019-06-01T15:55:52.257Z,16.27
2019-06-01T15:58:22.297Z,19.70
2019-06-01T16:00:52.907Z,20.70
2019-06-01T16:03:23.451Z,19.87
2019-06-01T16:05:53.411Z,20.47
2019-06-01T16:08:25.000Z,15.80
2019-06-01T16:10:55.254Z,19.80
2019-06-01T16:13:25.585Z,20.40
2019-06-01T16:15:57.991Z,19.33
2019-06-01T16:18:28.167Z,14.67
2019-06-01T16:20:58.105Z,16.10
2019-06-01T16:23:27.823Z,22.93
2019-06-01T16:26:09.472Z,20.13
2019-06-01T16:28:29.468Z,14.13
2019-06-01T16:31:00.579Z,14.47
2019-06-01T16:33:34.075Z,17.70
2019-06-01T16:36:05.625Z,18.10
2019-06-01T16:38:38.240Z,12.40
2019-06-01T16:41:12.723Z,15.07
2019-06-01T16:43:44.480Z,14.73
2019-06-01T16:46:14.318Z,16.80
2019-06-01T16:48:44.686Z,16.57
2019-06-01T16:51:15.239Z,14.00
2019-06-01T16:53:48.078Z,14.57
2019-06-01T16:56:18.142Z,14.60
2019-06-01T16:58:51.058Z,14.67
2019-06-01T17:01:21.238Z,14.23
2019-06-01T17:03:52.602Z,14.87
2019-06-01T17:06:25.460Z,14.40
2019-06-01T17:08:56.608Z,14.67
2019-06-01T17:11:27.404Z,11.23
2019-06-01T17:13:58.615Z,19.73
2019-06-01T17:16:33.720Z,13.77
2019-06-01T17:19:05.233Z,15.63
2019-06-01T17:21:35.060Z,11.20
2019-06-01T17:24:08.183Z,13.40
2019-06-01T17:26:40.064Z,14.37
2019-06-01T17:29:10.559Z,13.77
2019-06-01T17:31:53.953Z,9.60
2019-06-01T17:34:17.019Z,14.00
2019-06-01T17:36:47.754Z,11.23
2019-06-01T17:39:19.471Z,13.73
2019-06-01T17:41:48.979Z,12.97
2019-06-01T17:44:18.779Z,14.13
2019-06-01T17:46:53.575Z,16.53
2019-06-01T17:49:23.369Z,15.67
2019-06-01T17:51:54.817Z,13.43
2019-06-01T17:54:24.391Z,16.27
2019-06-01T17:56:54.077Z,14.80
2019-06-01T17:59:25.081Z,15.47
2019-06-01T18:01:54.931Z,15.93
2019-06-01T18:04:24.960Z,15.50
2019-06-01T18:06:54.688Z,16.47
2019-06-01T18:09:24.504Z,16.97
2019-06-01T18:11:56.894Z,15.93
2019-06-01T18:14:27.391Z,12.57
2019-06-01T18:16:57.394Z,16.87
2019-06-01T18:19:27.564Z,16.40
2019-06-01T18:21:59.466Z,15.30
2019-06-01T18:24:29.643Z,12.77
2019-06-01T18:26:59.583Z,14.47
2019-06-01T18:29:38.929Z,15.03
2019-06-01T18:32:09.427Z,15.40
2019-06-01T18:34:40.010Z,14.83
2019-06-01T18:37:09.741Z,13.40
2019-06-01T18:39:47.997Z,20.60
2019-06-01T18:42:20.282Z,17.57
2019-06-01T18:44:52.447Z,16.80
2019-06-01T18:47:37.306Z,17.73
2019-06-01T18:50:16.003Z,15.13
2019-06-01T18:52:47.943Z,17.10
2019-06-01T18:55:19.894Z,18.23
2019-06-01T18:57:52.766Z,19.07
2019-06-01T19:00:22.901Z,22.60
2019-06-01T19:02:52.824Z,18.40
2019-06-01T19:05:22.786Z,18.50
2019-06-01T19:07:55.460Z,21.53
2019-06-01T19:10:25.374Z,18.63
2019-06-01T19:12:57.520Z,19.07
2019-06-01T19:15:29.165Z,19.37
2019-06-01T19:18:00.093Z,20.33
2019-06-01T19:20:33.131Z,15.90
2019-06-01T19:23:08.741Z,20.83
2019-06-01T19:25:38.811Z,17.90
2019-06-01T19:28:09.097Z,19.50
2019-06-01T19:30:44.578Z,15.07
2019-06-01T19:33:17.422Z,18.23
2019-06-01T19:35:56.809Z,19.33
2019-06-01T19:38:36.805Z,20.33
2019-06-01T19:41:11.306Z,22.20
2019-06-01T19:43:51.278Z,20.83
2019-06-01T19:46:23.698Z,21.10
2019-06-01T19:48:55.429Z,23.77
2019-06-01T19:51:25.761Z,24.87
2019-06-01T19:53:56.377Z,25.10
2019-06-01T19:56:26.317Z,21.37
2019-06-01T19:58:56.101Z,26.10
2019-06-01T20:01:26.560Z,20.90
2019-06-01T20:03:56.676Z,17.83
2019-06-01T20:06:27.038Z,18.97
2019-06-01T20:08:58.460Z,19.80
2019-06-01T20:11:28.699Z,19.30
2019-06-01T20:13:58.884Z,23.27
2019-06-01T20:16:30.770Z,20.80
2019-06-01T20:19:01.186Z,22.47
2019-06-01T20:21:40.386Z,20.43
2019-06-01T20:24:11.103Z,21.93
2019-06-01T20:26:48.779Z,17.73
2019-06-01T20:29:15.682Z,23.37
2019-06-01T20:31:46.351Z,21.43
2019-06-01T20:34:22.231Z,25.00
2019-06-01T20:36:52.541Z,25.37
2019-06-01T20:39:22.499Z,25.50
2019-06-01T20:41:52.745Z,24.13
2019-06-01T20:44:23.448Z,24.80
2019-06-01T20:46:54.460Z,28.43
2019-06-01T20:49:24.359Z,22.00
2019-06-01T20:51:55.202Z,24.80
2019-06-01T20:54:26.742Z,20.30
2019-06-01T20:56:57.098Z,21.80
2019-06-01T20:59:26.792Z,22.23
2019-06-01T21:01:57.842Z,21.80
2019-06-01T21:04:29.177Z,27.37
2019-06-01T21:06:59.856Z,20.17
2019-06-01T21:09:30.207Z,24.57
2019-06-01T21:12:01.287Z,27.60
2019-06-01T21:14:32.541Z,28.37
2019-06-01T21:17:02.857Z,19.23
2019-06-01T21:19:32.853Z,24.37
2019-06-01T21:22:03.456Z,24.97
2019-06-01T21:24:34.002Z,28.27
2019-06-01T21:27:04.686Z,18.20
2019-06-01T21:29:37.173Z,25.43
2019-06-01T21:32:25.764Z,18.47
2019-06-01T21:35:01.833Z,21.90
2019-06-01T21:37:36.098Z,22.63
2019-06-01T21:40:13.110Z,21.00
2019-06-01T21:43:00.930Z,25.00
2019-06-01T21:45:26.479Z,20.40
2019-06-01T21:48:00.157Z,26.27
2019-06-01T21:50:34.487Z,23.10
2019-06-01T21:53:22.097Z,21.07
2019-06-01T21:55:56.615Z,19.70
2019-06-01T21:58:40.141Z,29.27
2019-06-01T22:01:18.801Z,25.43
2019-06-01T22:03:51.009Z,23.20
2019-06-01T22:06:25.634Z,17.53
2019-06-01T22:09:00.880Z,25.57
2019-06-01T22:11:34.866Z,22.90
2019-06-01T22:14:11.039Z,19.80
2019-06-01T22:16:54.955Z,17.07
2019-06-01T22:19:29.170Z,19.63
2019-06-01T22:22:12.054Z,21.97
2019-06-01T22:24:44.710Z,23.83
2019-06-01T22:27:18.136Z,15.87
2019-06-01T22:29:52.318Z,21.53
2019-06-01T22:32:29.577Z,15.93
2019-06-01T22:34:59.115Z,19.73
2019-06-01T22:37:32.297Z,18.97
2019-06-01T22:40:07.429Z,19.83
2019-06-01T22:42:40.722Z,22.00
2019-06-01T22:45:16.219Z,17.20
2019-06-01T22:47:51.566Z,17.33
2019-06-01T22:50:22.772Z,19.60
2019-06-01T22:52:58.301Z,13.30
2019-06-01T22:55:28.552Z,13.83
2019-06-01T22:57:58.183Z,17.37
2019-06-01T23:00:28.070Z,17.33
2019-06-01T23:02:57.855Z,13.67
2019-06-01T23:05:29.058Z,21.07
2019-06-01T23:07:59.470Z,13.93
2019-06-01T23:10:34.886Z,14.27
2019-06-01T23:13:01.427Z,14.17
2019-06-01T23:15:31.955Z,24.50
2019-06-01T23:18:02.114Z,18.63
2019-06-01T23:20:32.452Z,19.40
2019-06-01T23:23:02.227Z,18.97
2019-06-01T23:25:32.674Z,18.87
2019-06-01T23:28:02.691Z,14.93
2019-06-01T23:30:32.645Z,22.97
2019-06-01T23:33:03.691Z,23.63
2019-06-01T23:35:33.634Z,19.87
2019-06-01T23:38:03.959Z,22.13
2019-06-01T23:40:34.244Z,16.03
2019-06-01T23:43:03.911Z,19.37
2019-06-01T23:45:33.549Z,22.50
2019-06-01T23:48:03.073Z,24.17
2019-06-01T23:50:34.051Z,20.40
2019-06-01T23:53:13.329Z,20.50
2019-06-01T23:55:36.272Z,17.83
2019-06-01T23:58:06.572Z,20.80
